createdAt,value
2023-09-28T00:04:34.020Z,8.75
2023-09-28T00:09:36.141Z,8.77
2023-09-28T00:14:36.833Z,9.00
2023-09-28T00:19:37.658Z,8.65
2023-09-28T00:24:39.779Z,9.88
2023-09-28T00:29:40.520Z,9.65
2023-09-28T00:34:41.347Z,9.15
2023-09-28T00:39:43.485Z,8.98
2023-09-28T00:44:45.669Z,9.80
2023-09-28T00:49:46.822Z,9.90
2023-09-28T00:54:50.807Z,10.25
2023-09-28T00:59:51.544Z,9.15
2023-09-28T01:04:52.769Z,9.40
2023-09-28T01:09:56.148Z,9.45
2023-09-28T01:15:00.591Z,10.20
2023-09-28T01:20:01.340Z,9.52
2023-09-28T01:25:05.183Z,9.98
2023-09-28T01:30:07.041Z,9.35
2023-09-28T01:35:08.966Z,9.73
2023-09-28T01:40:14.345Z,9.43
2023-09-28T01:45:15.926Z,8.77
2023-09-28T01:50:16.693Z,9.70
2023-09-28T01:55:18.997Z,9.05
2023-09-28T02:00:21.613Z,9.10
2023-09-28T02:05:23.709Z,9.15
2023-09-28T02:10:26.034Z,9.50
2023-09-28T02:15:26.815Z,9.00
2023-09-28T02:20:27.523Z,9.25
2023-09-28T02:25:30.637Z,8.98
2023-09-28T02:30:31.376Z,9.18
2023-09-28T02:35:32.332Z,10.05
2023-09-28T02:40:34.452Z,9.35
2023-09-28T02:45:36.883Z,10.02
2023-09-28T02:50:40.057Z,9.75
2023-09-28T02:55:42.205Z,9.27
2023-09-28T03:00:43.533Z,9.30
2023-09-28T03:05:44.391Z,9.48
2023-09-28T03:10:46.672Z,9.13
2023-09-28T03:15:47.480Z,9.82
2023-09-28T03:20:49.228Z,9.05
2023-09-28T03:25:52.074Z,9.13
2023-09-28T03:30:52.823Z,10.05
2023-09-28T03:35:53.601Z,9.45
2023-09-28T03:40:55.744Z,9.35
2023-09-28T03:45:56.563Z,10.00
2023-09-28T03:50:57.418Z,10.27
2023-09-28T03:55:59.526Z,9.68
2023-09-28T04:01:00.303Z,9.50
2023-09-28T04:06:01.030Z,9.68
2023-09-28T04:11:03.261Z,9.52
2023-09-28T04:16:04.052Z,9.70
2023-09-28T04:21:04.820Z,9.48
2023-09-28T04:26:08.733Z,9.75
2023-09-28T04:31:09.625Z,10.07
2023-09-28T04:36:12.177Z,9.90
2023-09-28T04:41:17.393Z,9.50
2023-09-28T04:46:18.210Z,10.45
2023-09-28T04:51:19.234Z,9.85
2023-09-28T04:56:21.564Z,9.57
2023-09-28T05:01:22.617Z,11.00
2023-09-28T05:06:24.355Z,10.05
2023-09-28T05:11:26.464Z,10.27
2023-09-28T05:16:27.273Z,11.48
2023-09-28T05:21:28.109Z,10.65
2023-09-28T05:26:30.202Z,10.82
2023-09-28T05:31:33.101Z,10.75
2023-09-28T05:36:35.214Z,10.38
2023-09-28T05:41:37.377Z,10.32
2023-09-28T05:46:38.248Z,10.02
2023-09-28T05:51:38.977Z,10.13
2023-09-28T05:56:41.211Z,9.60
2023-09-28T06:01:42.033Z,10.40
2023-09-28T06:06:42.799Z,9.27
2023-09-28T06:11:47.036Z,9.63
2023-09-28T06:16:47.894Z,10.20
2023-09-28T06:21:48.674Z,10.10
2023-09-28T06:26:51.105Z,8.93
2023-09-28T06:31:52.047Z,9.50
2023-09-28T06:36:56.363Z,9.32
2023-09-28T06:42:12.492Z,8.32
2023-09-28T06:47:21.483Z,10.27
2023-09-28T06:52:22.694Z,8.18
2023-09-28T06:57:24.934Z,7.72
2023-09-28T07:02:26.015Z,7.38
2023-09-28T07:07:30.256Z,7.78
2023-09-28T07:12:32.394Z,6.47
2023-09-28T07:17:33.217Z,7.50
2023-09-28T07:22:34.237Z,5.85
2023-09-28T07:27:36.668Z,6.22
2023-09-28T07:32:37.697Z,6.13
2023-09-28T07:37:39.918Z,5.72
2023-09-28T07:42:44.482Z,6.25
2023-09-28T07:47:45.338Z,5.20
2023-09-28T07:52:46.099Z,5.55
2023-09-28T07:57:57.625Z,5.38
2023-09-28T08:03:01.439Z,5.75
2023-09-28T08:08:11.681Z,5.07
2023-09-28T08:13:18.857Z,4.88
2023-09-28T08:18:21.386Z,4.93
2023-09-28T08:23:24.329Z,4.47
2023-09-28T08:28:26.686Z,5.57
2023-09-28T08:33:27.664Z,5.10
2023-09-28T08:38:28.583Z,4.80
2023-09-28T08:43:35.131Z,4.25
2023-09-28T08:48:41.924Z,4.43
2023-09-28T08:53:44.519Z,4.45
2023-09-28T08:58:49.257Z,4.88
2023-09-28T09:03:51.370Z,4.68
2023-09-28T09:08:53.181Z,5.00
2023-09-28T09:13:57.799Z,4.85
2023-09-28T09:19:00.973Z,4.60
2023-09-28T09:24:06.247Z,4.63
2023-09-28T09:29:09.107Z,5.10
2023-09-28T09:34:12.668Z,4.15
2023-09-28T09:39:23.848Z,5.57
2023-09-28T09:44:27.552Z,5.40
2023-09-28T09:49:29.919Z,4.68
2023-09-28T09:54:33.389Z,5.10
2023-09-28T09:59:36.435Z,5.47
2023-09-28T10:04:38.072Z,5.20
2023-09-28T10:09:40.083Z,5.10
2023-09-28T10:14:42.793Z,4.85
2023-09-28T10:19:43.869Z,4.97
2023-09-28T10:24:45.635Z,4.70
2023-09-28T10:29:47.727Z,4.70
2023-09-28T10:35:09.372Z,5.45
2023-09-28T10:40:12.788Z,4.85
2023-09-28T10:45:13.567Z,6.10
2023-09-28T10:50:17.041Z,4.68
2023-09-28T10:55:19.368Z,4.53
2023-09-28T11:00:21.266Z,4.50
2023-09-28T11:05:23.105Z,4.80
2023-09-28T11:10:26.431Z,3.78
2023-09-28T11:15:30.620Z,5.03
2023-09-28T11:20:32.832Z,4.05
2023-09-28T11:25:45.498Z,4.18
2023-09-28T11:30:47.385Z,4.30
2023-09-28T11:35:48.395Z,4.28
2023-09-28T11:40:54.061Z,4.53
2023-09-28T11:45:55.214Z,4.65
2023-09-28T11:50:56.041Z,4.20
2023-09-28T11:55:58.283Z,4.10
2023-09-28T12:00:59.630Z,4.50
2023-09-28T12:06:00.477Z,4.18
2023-09-28T12:11:02.754Z,3.63
2023-09-28T12:16:03.810Z,3.58
2023-09-28T12:21:04.969Z,4.05
2023-09-28T12:26:07.229Z,4.80
2023-09-28T12:31:09.587Z,3.97
2023-09-28T12:36:13.656Z,4.38
2023-09-28T12:41:15.894Z,4.75
2023-09-28T12:46:16.811Z,4.03
2023-09-28T12:51:17.760Z,4.35
2023-09-28T12:56:19.935Z,4.03
2023-09-28T13:01:23.700Z,3.92
2023-09-28T13:06:24.949Z,3.88
2023-09-28T13:11:28.074Z,3.88
2023-09-28T13:16:30.166Z,4.35
2023-09-28T13:21:31.069Z,4.70
2023-09-28T13:26:34.306Z,3.72
2023-09-28T13:31:35.130Z,4.65
2023-09-28T13:36:35.964Z,3.75
2023-09-28T13:41:38.027Z,4.20
2023-09-28T13:46:39.265Z,4.15
2023-09-28T13:51:40.152Z,4.35
2023-09-28T13:56:45.836Z,4.15
2023-09-28T14:01:48.274Z,4.20
2023-09-28T14:06:49.198Z,3.83
2023-09-28T14:11:51.310Z,3.90
2023-09-28T14:16:52.871Z,4.78
2023-09-28T14:21:53.657Z,4.20
2023-09-28T14:26:56.245Z,3.80
2023-09-28T14:31:57.270Z,4.00
2023-09-28T14:36:58.344Z,4.03
2023-09-28T14:42:00.548Z,4.22
2023-09-28T14:47:01.324Z,4.28
2023-09-28T14:52:02.398Z,3.60
2023-09-28T14:57:05.131Z,3.97
2023-09-28T15:02:05.916Z,4.20
2023-09-28T15:07:13.958Z,3.58
2023-09-28T15:12:16.343Z,4.60
2023-09-28T15:17:17.183Z,4.50
2023-09-28T15:22:18.180Z,3.90
2023-09-28T15:27:20.332Z,3.70
2023-09-28T15:32:21.221Z,4.15
2023-09-28T15:37:22.696Z,4.72
2023-09-28T15:42:25.817Z,4.63
2023-09-28T15:47:26.926Z,4.40
2023-09-28T15:52:27.657Z,4.15
2023-09-28T15:57:31.293Z,4.85
2023-09-28T16:02:32.166Z,4.25
2023-09-28T16:07:33.094Z,4.90
2023-09-28T16:12:35.646Z,4.00
2023-09-28T16:17:37.205Z,4.68
2023-09-28T16:22:38.155Z,4.60
2023-09-28T16:27:40.353Z,4.13
2023-09-28T16:32:41.269Z,4.60
2023-09-28T16:37:42.144Z,5.43
2023-09-28T16:42:46.383Z,4.68
2023-09-28T16:47:47.594Z,4.95
2023-09-28T16:52:48.662Z,6.15
2023-09-28T16:57:50.955Z,6.25
2023-09-28T17:02:52.122Z,6.13
2023-09-28T17:07:53.024Z,6.00
2023-09-28T17:12:56.673Z,6.80
2023-09-28T17:18:06.442Z,6.22
2023-09-28T17:23:16.074Z,6.25
2023-09-28T17:28:18.264Z,5.93
2023-09-28T17:33:19.126Z,6.07
2023-09-28T17:38:20.004Z,6.65
2023-09-28T17:43:22.197Z,8.82
2023-09-28T17:48:25.182Z,7.18
2023-09-28T17:53:26.465Z,7.63
2023-09-28T17:58:28.800Z,6.57
2023-09-28T18:03:29.739Z,6.30
2023-09-28T18:08:30.567Z,6.80
2023-09-28T18:13:33.977Z,6.95
2023-09-28T18:18:34.895Z,6.40
2023-09-28T18:23:35.798Z,7.07
2023-09-28T18:28:38.981Z,5.88
2023-09-28T18:33:40.657Z,6.22
2023-09-28T18:38:41.515Z,6.55
2023-09-28T18:43:43.698Z,6.03
2023-09-28T18:48:44.502Z,5.97
2023-09-28T18:53:45.635Z,6.18
2023-09-28T18:58:47.774Z,6.45
2023-09-28T19:03:48.762Z,5.82
2023-09-28T19:08:50.282Z,6.47
2023-09-28T19:13:52.512Z,5.90
2023-09-28T19:18:53.665Z,6.40
2023-09-28T19:23:54.882Z,6.40
2023-09-28T19:28:57.260Z,7.03
2023-09-28T19:33:58.541Z,7.10
2023-09-28T19:38:59.343Z,6.82
2023-09-28T19:44:01.471Z,6.53
2023-09-28T19:49:02.559Z,6.68
2023-09-28T19:54:03.378Z,6.88
2023-09-28T19:59:05.469Z,6.75
2023-09-28T20:04:06.573Z,7.38
2023-09-28T20:09:07.966Z,6.75
2023-09-28T20:14:10.052Z,8.10
2023-09-28T20:19:10.837Z,7.65
2023-09-28T20:24:11.566Z,7.90
2023-09-28T20:29:13.759Z,8.00
2023-09-28T20:34:14.563Z,8.07
2023-09-28T20:39:16.062Z,8.90
2023-09-28T20:44:18.412Z,9.15
2023-09-28T20:49:19.283Z,8.77
2023-09-28T20:54:20.008Z,9.05
2023-09-28T20:59:22.339Z,9.07
2023-09-28T21:04:23.369Z,9.00
2023-09-28T21:09:24.294Z,9.20
2023-09-28T21:14:26.373Z,9.05
2023-09-28T21:19:27.069Z,8.98
2023-09-28T21:24:27.817Z,8.93
2023-09-28T21:29:30.215Z,9.13
2023-09-28T21:34:30.952Z,9.18
2023-09-28T21:39:31.811Z,8.98
2023-09-28T21:44:34.031Z,9.10
2023-09-28T21:49:34.841Z,9.45
2023-09-28T21:54:38.376Z,10.02
2023-09-28T21:59:41.038Z,9.73
2023-09-28T22:04:41.754Z,9.70
2023-09-28T22:09:42.512Z,10.18
2023-09-28T22:14:44.841Z,10.20
2023-09-28T22:19:45.605Z,10.13
2023-09-28T22:24:46.344Z,9.15
2023-09-28T22:29:48.790Z,9.80
2023-09-28T22:34:49.569Z,9.45
2023-09-28T22:39:50.311Z,9.75
2023-09-28T22:44:52.445Z,9.77
2023-09-28T22:49:53.259Z,10.45
2023-09-28T22:54:54.101Z,9.95
2023-09-28T22:59:56.229Z,9.35
2023-09-28T23:04:57.043Z,9.75
2023-09-28T23:09:57.939Z,9.57
2023-09-28T23:15:00.026Z,10.32
2023-09-28T23:20:00.827Z,9.65
2023-09-28T23:25:01.604Z,9.95
2023-09-28T23:30:03.926Z,10.10
2023-09-28T23:35:10.446Z,10.23
2023-09-28T23:40:16.358Z,10.70
2023-09-28T23:45:20.353Z,10.85
2023-09-28T23:50:22.523Z,10.10
2023-09-28T23:55:23.537Z,10.23
